createdAt,value
2023-01-22T00:01:59.924Z,99261.44
2023-01-22T00:04:01.783Z,99258.75
2023-01-22T00:06:06.217Z,99258.75
2023-01-22T00:08:07.812Z,99266.84
2023-01-22T00:10:10.908Z,99266.00
2023-01-22T00:12:12.789Z,99269.53
2023-01-22T00:14:14.576Z,99267.69
2023-01-22T00:16:19.283Z,99269.53
2023-01-22T00:18:20.923Z,99262.28
2023-01-22T00:20:24.635Z,99259.75
2023-01-22T00:22:26.271Z,99266.84
2023-01-22T00:24:27.833Z,99257.91
2023-01-22T00:26:29.368Z,99259.75
2023-01-22T00:28:31.439Z,99250.63
2023-01-22T00:30:33.421Z,99250.81
2023-01-22T00:32:35.111Z,99248.94
2023-01-22T00:34:36.850Z,99253.50
2023-01-22T00:36:41.074Z,99248.94
2023-01-22T00:38:42.857Z,99250.00
2023-01-22T00:40:44.555Z,99248.09
2023-01-22T00:42:46.305Z,99255.41
2023-01-22T00:44:48.251Z,99248.09
2023-01-22T00:46:52.885Z,99250.00
2023-01-22T00:48:54.907Z,99255.41
2023-01-22T00:50:57.647Z,99255.19
2023-01-22T00:52:59.379Z,99251.88
2023-01-22T00:55:01.091Z,99256.22
2023-01-22T00:57:02.754Z,99260.59
2023-01-22T00:59:10.453Z,99262.47
2023-01-22T01:01:14.509Z,99259.75
2023-01-22T01:03:30.574Z,99260.81
2023-01-22T01:05:35.568Z,99264.53
2023-01-22T01:07:37.193Z,99266.22
2023-01-22T01:09:40.042Z,99263.50
2023-01-22T01:11:41.559Z,99268.91
2023-01-22T01:13:43.928Z,99270.56
2023-01-22T01:15:48.279Z,99262.69
2023-01-22T01:17:50.132Z,99265.38
2023-01-22T01:19:51.857Z,99263.50
2023-01-22T01:21:53.616Z,99268.91
2023-01-22T01:23:59.974Z,99264.53
2023-01-22T01:26:08.922Z,99261.84
2023-01-22T01:28:13.321Z,99261.84
2023-01-22T01:30:15.696Z,99261.84
2023-01-22T01:32:19.151Z,99259.13
2023-01-22T01:34:21.947Z,99261.84
2023-01-22T01:36:46.247Z,99263.50
2023-01-22T01:38:47.855Z,99260.16
2023-01-22T01:40:49.377Z,99256.81
2023-01-22T01:42:51.108Z,99254.75
2023-01-22T01:45:17.627Z,99264.75
2023-01-22T01:47:34.425Z,99256.81
2023-01-22T01:49:47.487Z,99258.50
2023-01-22T01:51:50.236Z,99260.16
2023-01-22T01:53:52.080Z,99264.75
2023-01-22T01:55:56.511Z,99260.16
2023-01-22T01:58:03.203Z,99260.16
2023-01-22T02:00:13.239Z,99262.84
2023-01-22T02:02:15.645Z,99264.75
2023-01-22T02:04:19.663Z,99267.25
2023-01-22T02:06:21.887Z,99274.50
2023-01-22T02:08:24.160Z,99272.66
2023-01-22T02:10:25.951Z,99278.88
2023-01-22T02:12:28.002Z,99277.03
2023-01-22T02:17:18.206Z,99278.03
2023-01-22T02:19:19.981Z,99278.88
2023-01-22T02:21:30.873Z,99279.72
2023-01-22T02:23:36.933Z,99280.53
2023-01-22T02:25:39.043Z,99286.78
2023-01-22T02:27:43.833Z,99285.94
2023-01-22T02:29:45.706Z,99290.53
2023-01-22T02:31:47.392Z,99286.78
2023-01-22T02:33:49.508Z,99293.03
2023-01-22T02:35:51.027Z,99285.94
2023-01-22T02:37:52.652Z,99292.19
2023-01-22T02:39:54.413Z,99292.19
2023-01-22T02:41:57.328Z,99293.25
2023-01-22T02:44:05.197Z,99293.25
2023-01-22T02:46:06.815Z,99295.94
2023-01-22T02:48:08.758Z,99280.75
2023-01-22T02:50:11.371Z,99291.56
2023-01-22T02:52:14.153Z,99284.28
2023-01-22T02:54:18.783Z,99290.53
2023-01-22T02:56:23.481Z,99290.53
2023-01-22T02:58:25.140Z,99294.06
2023-01-22T03:00:26.947Z,99296.75
2023-01-22T03:02:28.648Z,99282.44
2023-01-22T03:04:32.195Z,99298.44
2023-01-22T03:06:33.992Z,99286.78
2023-01-22T03:08:41.664Z,99295.72
2023-01-22T03:10:45.735Z,99296.56
2023-01-22T03:13:07.121Z,99297.41
2023-01-22T03:15:28.954Z,99293.88
2023-01-22T03:17:49.606Z,99298.22
2023-01-22T03:20:10.075Z,99293.88
2023-01-22T03:22:12.100Z,99297.59
2023-01-22T03:24:13.748Z,99295.94
2023-01-22T03:26:16.541Z,99296.75
2023-01-22T03:28:19.351Z,99291.34
2023-01-22T03:30:26.796Z,99292.19
2023-01-22T03:32:28.361Z,99296.75
2023-01-22T03:34:29.933Z,99285.94
2023-01-22T03:36:33.027Z,99294.88
2023-01-22T03:38:38.729Z,99293.88
2023-01-22T03:40:43.965Z,99286.78
2023-01-22T03:42:45.496Z,99293.88
2023-01-22T03:44:48.169Z,99283.91
2023-01-22T03:46:51.430Z,99284.72
2023-01-22T03:48:53.970Z,99294.72
2023-01-22T03:50:55.841Z,99291.78
2023-01-22T03:52:58.324Z,99290.97
2023-01-22T03:55:00.034Z,99288.25
2023-01-22T03:57:01.723Z,99286.38
2023-01-22T03:59:06.737Z,99288.06
2023-01-22T04:01:12.275Z,99298.88
2023-01-22T04:03:13.895Z,99294.28
2023-01-22T04:05:16.820Z,99295.13
2023-01-22T04:07:19.484Z,99288.88
2023-01-22T04:09:22.128Z,99290.56
2023-01-22T04:11:32.969Z,99293.28
2023-01-22T04:13:37.310Z,99289.72
2023-01-22T04:15:39.479Z,99292.25
2023-01-22T04:17:51.424Z,99307.81
2023-01-22T04:20:10.166Z,99304.91
2023-01-22T04:22:38.019Z,99314.03
2023-01-22T04:24:41.200Z,99320.50
2023-01-22T04:26:45.307Z,99314.03
2023-01-22T04:28:48.773Z,99319.44
2023-01-22T04:30:53.864Z,99316.75
2023-01-22T04:33:14.164Z,99326.72
2023-01-22T04:35:34.530Z,99320.50
2023-01-22T04:37:36.910Z,99318.81
2023-01-22T04:39:38.637Z,99322.16
2023-01-22T04:41:48.851Z,99326.72
2023-01-22T04:43:50.742Z,99329.44
2023-01-22T04:46:02.450Z,99334.03
2023-01-22T04:48:08.412Z,99327.56
2023-01-22T04:50:23.814Z,99332.13
2023-01-22T04:52:26.096Z,99335.66
2023-01-22T04:54:27.843Z,99337.53
2023-01-22T04:56:30.109Z,99334.84
2023-01-22T04:58:31.683Z,99331.31
2023-01-22T05:00:35.382Z,99334.84
2023-01-22T05:02:38.527Z,99334.03
2023-01-22T05:04:42.032Z,99338.38
2023-01-22T05:06:44.003Z,99333.19
2023-01-22T05:08:45.717Z,99342.13
2023-01-22T05:10:48.251Z,99340.25
2023-01-22T05:13:03.157Z,99347.53
2023-01-22T05:15:18.685Z,99354.59
2023-01-22T05:17:26.764Z,99352.09
2023-01-22T05:19:28.615Z,99344.00
2023-01-22T05:21:30.381Z,99352.94
2023-01-22T05:23:32.123Z,99363.75
2023-01-22T05:25:33.879Z,99353.97
2023-01-22T05:27:36.769Z,99352.28
2023-01-22T05:29:44.241Z,99363.09
2023-01-22T05:32:01.919Z,99363.94
2023-01-22T05:34:08.176Z,99364.97
2023-01-22T05:36:12.753Z,99362.28
2023-01-22T05:38:14.654Z,99356.03
2023-01-22T05:40:16.674Z,99366.00
2023-01-22T05:42:23.860Z,99357.88
2023-01-22T05:44:26.442Z,99367.00
2023-01-22T05:46:33.297Z,99375.13
2023-01-22T05:48:53.320Z,99368.25
2023-01-22T05:51:04.660Z,99373.66
2023-01-22T05:53:09.255Z,99372.00
2023-01-22T05:55:12.357Z,99379.47
2023-01-22T05:57:17.682Z,99375.09
2023-01-22T05:59:22.271Z,99376.09
2023-01-22T06:01:44.352Z,99372.56
2023-01-22T06:03:46.099Z,99380.66
2023-01-22T06:06:17.711Z,99380.03
2023-01-22T06:08:19.740Z,99389.19
2023-01-22T06:10:26.518Z,99385.81
2023-01-22T06:12:28.196Z,99382.31
2023-01-22T06:14:30.674Z,99386.03
2023-01-22T06:16:34.271Z,99391.44
2023-01-22T06:18:35.908Z,99385.19
2023-01-22T06:20:37.720Z,99390.81
2023-01-22T06:22:42.407Z,99390.81
2023-01-22T06:24:46.568Z,99392.66
2023-01-22T06:26:50.220Z,99396.38
2023-01-22T06:28:55.203Z,99392.88
2023-01-22T06:31:05.439Z,99398.28
2023-01-22T06:33:07.365Z,99400.97
2023-01-22T06:35:12.124Z,99402.84
2023-01-22T06:37:13.858Z,99400.13
2023-01-22T06:39:20.271Z,99404.91
2023-01-22T06:41:33.971Z,99405.72
2023-01-22T06:43:38.644Z,99395.97
2023-01-22T06:45:40.757Z,99395.31
2023-01-22T06:47:45.705Z,99405.09
2023-01-22T06:49:48.212Z,99413.38
2023-01-22T06:51:49.868Z,99409.84
2023-01-22T06:53:52.782Z,99407.16
2023-01-22T06:55:58.388Z,99421.50
2023-01-22T06:58:00.489Z,99428.75
2023-01-22T07:00:02.017Z,99422.72
2023-01-22T07:02:04.280Z,99427.06
2023-01-22T07:04:08.658Z,99423.56
2023-01-22T07:06:10.879Z,99425.41
2023-01-22T07:08:15.439Z,99429.78
2023-01-22T07:10:20.416Z,99430.81
2023-01-22T07:12:23.724Z,99437.06
2023-01-22T07:14:36.535Z,99436.22
2023-01-22T07:16:40.563Z,99441.63
2023-01-22T07:18:42.156Z,99437.25
2023-01-22T07:20:43.816Z,99442.66
2023-01-22T07:22:45.478Z,99442.47
2023-01-22T07:24:49.902Z,99449.72
2023-01-22T07:26:51.664Z,99446.19
2023-01-22T07:28:53.292Z,99456.78
2023-01-22T07:30:56.633Z,99453.28
2023-01-22T07:33:03.254Z,99459.50
2023-01-22T07:35:05.133Z,99464.09
2023-01-22T07:37:06.887Z,99462.19
2023-01-22T07:39:08.571Z,99462.19
2023-01-22T07:41:24.522Z,99462.03
2023-01-22T07:43:27.094Z,99458.69
2023-01-22T07:45:35.771Z,99465.72
2023-01-22T07:47:37.394Z,99462.03
2023-01-22T07:49:38.967Z,99461.19
2023-01-22T07:51:40.674Z,99463.88
2023-01-22T07:53:42.909Z,99468.28
2023-01-22T07:55:47.901Z,99466.19
2023-01-22T07:57:57.551Z,99460.16
2023-01-22T07:59:59.596Z,99461.81
2023-01-22T08:02:03.461Z,99469.75
2023-01-22T08:04:05.733Z,99466.19
2023-01-22T08:06:15.401Z,99464.13
2023-01-22T08:08:20.392Z,99475.78
2023-01-22T08:10:21.900Z,99479.34
2023-01-22T08:12:23.731Z,99477.44
2023-01-22T08:14:25.464Z,99480.81
2023-01-22T08:16:27.085Z,99494.13
2023-01-22T08:18:31.117Z,99486.00
2023-01-22T08:20:32.671Z,99485.00
2023-01-22T08:22:34.429Z,99499.13
2023-01-22T08:24:36.653Z,99495.38
2023-01-22T08:26:39.197Z,99497.06
2023-01-22T08:28:41.144Z,99501.25
2023-01-22T08:30:46.526Z,99497.72
2023-01-22T08:32:57.279Z,99498.38
2023-01-22T08:34:59.022Z,99501.72
2023-01-22T08:37:04.149Z,99511.31
2023-01-22T08:39:13.641Z,99513.81
2023-01-22T08:41:15.802Z,99515.47
2023-01-22T08:43:17.715Z,99519.84
2023-01-22T08:45:21.382Z,99518.63
2023-01-22T08:47:30.413Z,99523.00
2023-01-22T08:49:35.309Z,99523.84
2023-01-22T08:51:39.067Z,99526.97
2023-01-22T08:53:43.635Z,99527.81
2023-01-22T08:55:51.497Z,99523.91
2023-01-22T08:57:54.814Z,99530.16
2023-01-22T09:00:01.430Z,99529.13
2023-01-22T09:02:03.670Z,99529.78
2023-01-22T09:04:08.157Z,99531.41
2023-01-22T09:06:10.303Z,99527.69
2023-01-22T09:08:12.004Z,99529.38
2023-01-22T09:10:13.801Z,99536.44
2023-01-22T09:12:15.529Z,99526.28
2023-01-22T09:14:17.449Z,99525.25
2023-01-22T09:16:19.074Z,99526.94
2023-01-22T09:18:20.660Z,99529.22
2023-01-22T09:20:22.556Z,99532.59
2023-01-22T09:22:24.286Z,99533.22
2023-01-22T09:24:26.324Z,99534.06
2023-01-22T09:26:28.114Z,99536.78
2023-01-22T09:28:29.810Z,99535.72
2023-01-22T09:30:32.279Z,99539.91
2023-01-22T09:32:37.340Z,99547.00
2023-01-22T09:34:39.078Z,99544.09
2023-01-22T09:36:43.115Z,99546.63
2023-01-22T09:38:45.011Z,99552.03
2023-01-22T09:41:00.576Z,99553.69
2023-01-22T09:43:19.617Z,99553.50
2023-01-22T09:45:25.864Z,99555.16
2023-01-22T09:47:33.406Z,99560.41
2023-01-22T09:50:18.485Z,99569.16
2023-01-22T09:52:21.676Z,99564.38
2023-01-22T09:54:24.693Z,99566.06
2023-01-22T09:56:33.831Z,99568.75
2023-01-22T09:58:35.984Z,99573.97
2023-01-22T10:00:41.027Z,99576.47
2023-01-22T10:02:54.095Z,99569.19
2023-01-22T10:05:02.071Z,99582.53
2023-01-22T10:07:14.951Z,99573.56
2023-01-22T10:09:20.715Z,99569.66
2023-01-22T10:11:22.315Z,99573.38
2023-01-22T10:13:30.167Z,99577.56
2023-01-22T10:15:33.256Z,99574.66
2023-01-22T10:17:36.111Z,99572.59
2023-01-22T10:19:46.936Z,99578.00
2023-01-22T10:21:58.865Z,99571.41
2023-01-22T10:24:00.640Z,99572.03
2023-01-22T10:26:25.385Z,99566.25
2023-01-22T10:28:28.274Z,99575.00
2023-01-22T10:30:31.033Z,99569.38
2023-01-22T10:32:33.040Z,99570.84
2023-01-22T10:34:39.231Z,99571.50
2023-01-22T10:36:48.067Z,99578.41
2023-01-22T10:38:49.671Z,99579.03
2023-01-22T10:41:03.238Z,99583.22
2023-01-22T10:43:17.545Z,99585.72
2023-01-22T10:45:19.765Z,99585.31
2023-01-22T10:47:23.835Z,99590.53
2023-01-22T10:49:27.494Z,99590.97
2023-01-22T10:51:55.157Z,99589.97
2023-01-22T10:54:00.852Z,99590.59
2023-01-22T10:56:12.522Z,99586.66
2023-01-22T10:58:18.233Z,99585.59
2023-01-22T11:00:26.474Z,99585.22
2023-01-22T11:02:29.047Z,99598.56
2023-01-22T11:04:35.607Z,99592.09
2023-01-22T11:06:55.032Z,99600.84
2023-01-22T11:09:04.128Z,99597.34
2023-01-22T11:11:10.776Z,99600.47
2023-01-22T11:13:19.935Z,99597.97
2023-01-22T11:15:21.434Z,99597.75
2023-01-22T11:17:34.275Z,99594.66
2023-01-22T11:19:46.109Z,99600.91
2023-01-22T11:21:53.013Z,99592.59
2023-01-22T11:24:02.351Z,99594.25
2023-01-22T11:26:32.395Z,99596.75
2023-01-22T11:28:41.845Z,99599.09
2023-01-22T11:31:03.372Z,99597.41
2023-01-22T11:33:26.006Z,99591.81
2023-01-22T11:35:36.996Z,99582.66
2023-01-22T11:38:15.706Z,99584.13
2023-01-22T11:40:30.956Z,99579.53
2023-01-22T11:42:44.092Z,99575.56
2023-01-22T11:45:05.122Z,99576.41
2023-01-22T11:47:30.136Z,99576.03
2023-01-22T11:50:00.212Z,99577.28
2023-01-22T11:52:31.176Z,99567.91
2023-01-22T11:54:41.811Z,99569.38
2023-01-22T11:57:11.484Z,99566.28
2023-01-22T11:59:21.851Z,99574.22
2023-01-22T12:01:56.491Z,99567.56
2023-01-22T12:04:09.994Z,99568.19
2023-01-22T12:06:43.687Z,99562.38
2023-01-22T12:08:57.991Z,99561.97
2023-01-22T12:11:32.025Z,99568.22
2023-01-22T12:13:49.849Z,99562.41
2023-01-22T12:16:10.921Z,99567.41
2023-01-22T12:18:48.027Z,99561.59
2023-01-22T12:21:15.977Z,99564.09
2023-01-22T12:23:25.546Z,99561.84
2023-01-22T12:25:35.975Z,99552.84
2023-01-22T12:27:49.268Z,99562.63
2023-01-22T12:30:01.756Z,99567.66
2023-01-22T12:32:09.350Z,99562.06
2023-01-22T12:34:20.788Z,99567.25
2023-01-22T12:36:27.611Z,99568.28
2023-01-22T12:39:09.084Z,99567.25
2023-01-22T12:41:46.040Z,99556.19
2023-01-22T12:43:54.263Z,99556.84
2023-01-22T12:46:14.094Z,99562.91
2023-01-22T12:48:34.640Z,99557.66
2023-01-22T12:50:37.752Z,99548.28
2023-01-22T12:52:40.892Z,99546.44
2023-01-22T12:54:42.670Z,99543.53
2023-01-22T12:56:44.453Z,99549.75
2023-01-22T12:58:56.766Z,99541.63
2023-01-22T13:01:05.084Z,99538.72
2023-01-22T13:03:31.656Z,99545.00
2023-01-22T13:05:33.905Z,99551.03
2023-01-22T13:07:41.250Z,99544.56
2023-01-22T13:09:44.380Z,99548.97
2023-01-22T13:11:46.201Z,99547.94
2023-01-22T13:14:23.550Z,99544.16
2023-01-22T13:16:27.556Z,99542.06
2023-01-22T13:18:48.526Z,99542.91
2023-01-22T13:21:09.744Z,99550.84
2023-01-22T13:23:13.855Z,99544.38
2023-01-22T13:25:30.841Z,99550.66
2023-01-22T13:27:37.449Z,99555.84
2023-01-22T13:29:39.654Z,99548.78
2023-01-22T13:32:17.332Z,99561.28
2023-01-22T13:34:19.118Z,99559.22
2023-01-22T13:36:20.752Z,99554.41
2023-01-22T13:38:33.108Z,99559.63
2023-01-22T13:40:46.326Z,99554.00
2023-01-22T13:42:54.568Z,99560.06
2023-01-22T13:44:57.049Z,99558.19
2023-01-22T13:46:59.574Z,99561.72
2023-01-22T13:49:04.733Z,99556.94
2023-01-22T13:51:10.607Z,99557.75
2023-01-22T13:53:29.893Z,99563.19
2023-01-22T13:55:33.213Z,99567.78
2023-01-22T13:57:35.614Z,99566.72
2023-01-22T13:59:37.520Z,99567.56
2023-01-22T14:01:39.207Z,99567.56
2023-01-22T14:03:42.626Z,99570.06
2023-01-22T14:05:50.120Z,99557.56
2023-01-22T14:08:03.056Z,99573.84
2023-01-22T14:10:14.145Z,99577.56
2023-01-22T14:12:27.157Z,99572.16
2023-01-22T14:14:40.211Z,99577.56
2023-01-22T14:16:41.939Z,99573.84
2023-01-22T14:18:47.717Z,99579.25
2023-01-22T14:20:49.380Z,99580.09
2023-01-22T14:22:50.999Z,99580.91
2023-01-22T14:24:53.301Z,99586.34
2023-01-22T14:26:59.737Z,99583.63
2023-01-22T14:29:03.256Z,99587.19
2023-01-22T14:31:05.247Z,99589.28
2023-01-22T14:33:15.070Z,99599.91
2023-01-22T14:35:22.652Z,99596.56
2023-01-22T14:37:24.412Z,99597.63
2023-01-22T14:39:26.553Z,99599.28
2023-01-22T14:41:28.267Z,99595.72
2023-01-22T14:43:30.063Z,99596.56
2023-01-22T14:45:31.627Z,99593.84
2023-01-22T14:47:33.925Z,99600.53
2023-01-22T14:49:39.520Z,99600.75
2023-01-22T14:51:41.286Z,99601.75
2023-01-22T14:53:43.593Z,99605.31
2023-01-22T14:55:47.845Z,99604.47
2023-01-22T14:57:50.221Z,99604.47
2023-01-22T14:59:51.943Z,99599.28
2023-01-22T15:01:53.919Z,99599.28
2023-01-22T15:03:56.624Z,99603.22
2023-01-22T15:05:58.423Z,99613.00
2023-01-22T15:08:05.236Z,99604.06
2023-01-22T15:10:08.804Z,99605.94
2023-01-22T15:12:10.763Z,99606.97
2023-01-22T15:14:12.451Z,99604.25
2023-01-22T15:16:14.237Z,99610.72
2023-01-22T15:18:15.751Z,99610.06
2023-01-22T15:20:21.384Z,99613.84
2023-01-22T15:22:23.070Z,99620.13
2023-01-22T15:24:26.642Z,99618.44
2023-01-22T15:26:40.231Z,99614.03
2023-01-22T15:28:41.905Z,99626.78
2023-01-22T15:30:46.866Z,99627.81
2023-01-22T15:32:48.608Z,99623.41
2023-01-22T15:34:50.364Z,99628.84
2023-01-22T15:36:51.994Z,99638.03
2023-01-22T15:38:53.751Z,99642.81
2023-01-22T15:41:05.229Z,99637.59
2023-01-22T15:43:06.880Z,99643.00
2023-01-22T15:45:10.636Z,99652.19
2023-01-22T15:47:14.391Z,99653.22
2023-01-22T15:49:18.260Z,99651.34
2023-01-22T15:51:21.580Z,99653.44
2023-01-22T15:53:23.760Z,99640.91
2023-01-22T15:55:26.603Z,99648.41
2023-01-22T15:57:28.267Z,99652.16
2023-01-22T15:59:30.039Z,99648.41
2023-01-22T16:01:34.603Z,99655.91
2023-01-22T16:03:36.325Z,99654.22
2023-01-22T16:05:38.068Z,99655.25
2023-01-22T16:07:41.659Z,99651.72
2023-01-22T16:09:43.416Z,99650.91
2023-01-22T16:11:45.477Z,99654.63
2023-01-22T16:13:48.129Z,99648.38
2023-01-22T16:16:37.410Z,99655.03
2023-01-22T16:18:41.969Z,99661.50
2023-01-22T16:20:47.613Z,99660.66
2023-01-22T16:22:49.654Z,99666.28
2023-01-22T16:24:57.228Z,99660.03
2023-01-22T16:26:59.076Z,99664.59
2023-01-22T16:29:05.412Z,99666.28
2023-01-22T16:31:10.254Z,99670.03
2023-01-22T16:33:29.403Z,99675.84
2023-01-22T16:35:31.451Z,99663.34
2023-01-22T16:37:37.384Z,99667.09
2023-01-22T16:39:41.682Z,99674.59
2023-01-22T16:42:03.812Z,99672.91
2023-01-22T16:44:16.266Z,99671.41
2023-01-22T16:46:20.393Z,99684.13
2023-01-22T16:48:22.011Z,99684.13
2023-01-22T16:50:23.953Z,99688.53
2023-01-22T16:52:25.621Z,99686.84
2023-01-22T16:54:28.959Z,99687.91
2023-01-22T16:56:32.540Z,99686.22
2023-01-22T16:58:37.786Z,99697.25
2023-01-22T17:00:44.511Z,99694.56
2023-01-22T17:02:48.831Z,99694.72
2023-01-22T17:04:52.611Z,99703.69
2023-01-22T17:06:57.295Z,99696.63
2023-01-22T17:09:01.359Z,99696.63
2023-01-22T17:11:03.019Z,99700.34
2023-01-22T17:13:06.577Z,99697.66
2023-01-22T17:15:09.129Z,99705.78
2023-01-22T17:17:13.769Z,99699.72
2023-01-22T17:19:16.062Z,99704.31
2023-01-22T17:21:19.180Z,99709.72
2023-01-22T17:23:29.432Z,99714.28
2023-01-22T17:25:31.368Z,99710.75
2023-01-22T17:27:33.172Z,99719.09
2023-01-22T17:29:36.425Z,99716.59
2023-01-22T17:31:38.161Z,99717.59
2023-01-22T17:33:39.830Z,99723.88
2023-01-22T17:35:42.148Z,99724.03
2023-01-22T17:37:43.978Z,99730.53
2023-01-22T17:39:50.772Z,99730.69
2023-01-22T17:41:52.448Z,99739.88
2023-01-22T17:43:56.132Z,99744.84
2023-01-22T17:45:58.046Z,99744.84
2023-01-22T17:48:00.020Z,99744.00
2023-01-22T17:50:01.623Z,99747.75
2023-01-22T17:52:04.117Z,99742.50
2023-01-22T17:54:09.418Z,99751.69
2023-01-22T17:56:15.773Z,99750.22
2023-01-22T17:58:18.723Z,99755.63
2023-01-22T18:00:20.962Z,99754.78
2023-01-22T18:02:22.908Z,99749.38
2023-01-22T18:04:24.632Z,99762.28
2023-01-22T18:06:26.470Z,99757.03
2023-01-22T18:08:30.093Z,99761.66
2023-01-22T18:10:34.214Z,99762.66
2023-01-22T18:12:35.818Z,99762.88
2023-01-22T18:14:39.785Z,99762.88
2023-01-22T18:16:41.478Z,99764.91
2023-01-22T18:18:47.113Z,99764.09
2023-01-22T18:20:49.192Z,99759.72
2023-01-22T18:22:57.665Z,99768.84
2023-01-22T18:25:01.705Z,99773.41
2023-01-22T18:27:03.808Z,99779.69
2023-01-22T18:29:06.303Z,99784.25
2023-01-22T18:31:19.328Z,99785.47
2023-01-22T18:33:21.964Z,99784.66
2023-01-22T18:35:23.704Z,99785.47
2023-01-22T18:37:25.321Z,99789.25
2023-01-22T18:39:31.079Z,99789.25
2023-01-22T18:41:32.954Z,99789.41
2023-01-22T18:43:34.609Z,99791.31
2023-01-22T18:45:37.173Z,99792.97
2023-01-22T18:47:38.812Z,99789.63
2023-01-22T18:49:40.358Z,99808.56
2023-01-22T18:51:42.439Z,99800.44
2023-01-22T18:53:44.188Z,99805.03
2023-01-22T18:55:46.005Z,99800.84
2023-01-22T18:57:53.199Z,99804.38
2023-01-22T18:59:54.876Z,99796.47
2023-01-22T19:01:57.519Z,99802.69
2023-01-22T19:04:05.036Z,99805.41
2023-01-22T19:06:14.148Z,99805.63
2023-01-22T19:08:15.755Z,99815.81
2023-01-22T19:10:17.896Z,99810.38
2023-01-22T19:12:26.417Z,99805.16
2023-01-22T19:14:28.992Z,99806.19
2023-01-22T19:16:31.839Z,99813.47
2023-01-22T19:18:34.058Z,99807.03
2023-01-22T19:20:39.545Z,99817.03
2023-01-22T19:22:41.736Z,99815.34
2023-01-22T19:24:46.160Z,99811.78
2023-01-22T19:26:51.053Z,99814.50
2023-01-22T19:28:56.066Z,99817.19
2023-01-22T19:30:57.844Z,99814.50
2023-01-22T19:32:59.495Z,99817.41
2023-01-22T19:35:04.344Z,99816.56
2023-01-22T19:37:06.678Z,99814.06
2023-01-22T19:39:12.256Z,99821.97
2023-01-22T19:41:14.431Z,99820.31
2023-01-22T19:43:16.031Z,99814.06
2023-01-22T19:45:18.071Z,99823.03
2023-01-22T19:47:20.847Z,99814.06
2023-01-22T19:49:22.520Z,99816.94
2023-01-22T19:51:30.799Z,99819.66
2023-01-22T19:53:34.148Z,99826.97
2023-01-22T19:55:37.509Z,99831.53
2023-01-22T19:57:39.165Z,99825.25
2023-01-22T19:59:42.464Z,99818.00
2023-01-22T20:01:45.770Z,99824.41
2023-01-22T20:03:50.218Z,99814.63
2023-01-22T20:05:52.148Z,99824.63
2023-01-22T20:07:57.162Z,99820.06
2023-01-22T20:10:01.679Z,99830.03
2023-01-22T20:12:08.670Z,99827.50
2023-01-22T20:14:12.235Z,99829.19
2023-01-22T20:16:23.299Z,99829.19
2023-01-22T20:18:25.426Z,99824.78
2023-01-22T20:20:28.561Z,99830.22
2023-01-22T20:22:30.413Z,99824.78
2023-01-22T20:24:32.193Z,99829.41
2023-01-22T20:26:34.360Z,99828.56
2023-01-22T20:28:36.814Z,99829.56
2023-01-22T20:30:38.413Z,99838.75
2023-01-22T20:32:43.035Z,99836.84
2023-01-22T20:34:52.210Z,99825.38
2023-01-22T20:36:53.799Z,99833.50
2023-01-22T20:38:55.949Z,99832.66
2023-01-22T20:41:04.429Z,99831.84
2023-01-22T20:43:06.285Z,99838.06
2023-01-22T20:45:08.178Z,99839.97
2023-01-22T20:47:09.885Z,99846.38
2023-01-22T20:49:12.270Z,99842.66
2023-01-22T20:51:16.959Z,99848.09
2023-01-22T20:53:20.123Z,99847.25
2023-01-22T20:55:21.933Z,99845.53
2023-01-22T20:57:23.830Z,99850.97
2023-01-22T20:59:31.910Z,99847.41
2023-01-22T21:01:34.368Z,99845.53
2023-01-22T21:03:37.019Z,99844.91
2023-01-22T21:05:40.764Z,99843.88
2023-01-22T21:07:42.329Z,99853.88
2023-01-22T21:09:43.864Z,99844.91
2023-01-22T21:11:45.514Z,99844.91
2023-01-22T21:13:48.727Z,99858.44
2023-01-22T21:15:52.079Z,99856.75
2023-01-22T21:17:54.919Z,99864.06
2023-01-22T21:19:57.932Z,99866.94
2023-01-22T21:22:00.993Z,99866.94
2023-01-22T21:24:03.973Z,99858.81
2023-01-22T21:26:07.391Z,99861.50
2023-01-22T21:28:09.077Z,99867.97
2023-01-22T21:30:11.606Z,99870.69
2023-01-22T21:32:15.239Z,99872.53
2023-01-22T21:34:19.971Z,99871.69
2023-01-22T21:36:22.382Z,99870.00
2023-01-22T21:38:24.095Z,99877.13
2023-01-22T21:40:25.911Z,99878.13
2023-01-22T21:42:49.933Z,99872.53
2023-01-22T21:45:10.028Z,99880.03
2023-01-22T21:47:11.733Z,99887.28
2023-01-22T21:49:20.254Z,99888.31
2023-01-22T21:51:22.064Z,99890.16
2023-01-22T21:53:23.823Z,99892.06
2023-01-22T21:55:25.591Z,99889.34
2023-01-22T21:57:28.388Z,99891.22
2023-01-22T21:59:30.186Z,99886.66
2023-01-22T22:01:35.694Z,99891.22
2023-01-22T22:03:37.781Z,99897.47
2023-01-22T22:05:40.210Z,99890.38
2023-01-22T22:07:41.988Z,99891.22
2023-01-22T22:09:46.895Z,99891.22
2023-01-22T22:11:48.696Z,99895.78
2023-01-22T22:13:50.254Z,99890.56
2023-01-22T22:15:52.138Z,99896.81
2023-01-22T22:17:53.694Z,99903.06
2023-01-22T22:19:56.771Z,99900.34
2023-01-22T22:21:58.452Z,99900.34
2023-01-22T22:24:00.048Z,99902.22
2023-01-22T22:26:02.266Z,99904.75
2023-01-22T22:28:06.751Z,99901.41
2023-01-22T22:30:09.163Z,99898.84
2023-01-22T22:32:10.892Z,99899.72
2023-01-22T22:34:12.722Z,99902.41
2023-01-22T22:36:16.131Z,99905.13
2023-01-22T22:38:17.835Z,99904.28
2023-01-22T22:40:22.383Z,99909.69
2023-01-22T22:42:24.086Z,99898.84
2023-01-22T22:44:28.536Z,99899.91
2023-01-22T22:46:33.503Z,99899.06
2023-01-22T22:48:35.175Z,99910.72
2023-01-22T22:50:36.825Z,99906.34
2023-01-22T22:52:38.486Z,99908.84
2023-01-22T22:54:40.290Z,99912.75
2023-01-22T22:56:42.729Z,99921.56
2023-01-22T22:58:44.338Z,99915.31
2023-01-22T23:00:46.016Z,99913.59
2023-01-22T23:02:50.613Z,99909.88
2023-01-22T23:04:52.300Z,99913.59
2023-01-22T23:06:54.312Z,99919.88
2023-01-22T23:09:00.009Z,99918.19
2023-01-22T23:11:06.359Z,99912.75
2023-01-22T23:13:13.441Z,99913.81
2023-01-22T23:15:17.565Z,99914.81
2023-01-22T23:17:20.046Z,99913.16
2023-01-22T23:19:24.604Z,99918.56
2023-01-22T23:21:28.451Z,99920.44
2023-01-22T23:23:30.067Z,99917.72
2023-01-22T23:25:31.836Z,99912.50
2023-01-22T23:27:33.536Z,99917.06
2023-01-22T23:29:35.121Z,99908.09
2023-01-22T23:31:38.538Z,99912.66
2023-01-22T23:33:43.966Z,99916.19
2023-01-22T23:35:54.093Z,99926.84
2023-01-22T23:37:56.812Z,99928.03
2023-01-22T23:39:58.525Z,99924.31
2023-01-22T23:42:05.633Z,99930.94
2023-01-22T23:44:08.014Z,99935.16
2023-01-22T23:46:15.902Z,99928.03
2023-01-22T23:48:18.419Z,99926.38
2023-01-22T23:50:20.917Z,99925.53
2023-01-22T23:52:22.685Z,99921.97
2023-01-22T23:54:24.298Z,99923.69
2023-01-22T23:56:31.856Z,99923.69
2023-01-22T23:58:34.845Z,99916.56
